sensor_id;sensor_type;location;lat;lon;timestamp;P1;durP1;ratioP1;P2;durP2;ratioP2
54241;SDS011;40156;51.080;17.082;2023-04-06T00:02:26;60.67;;;26.15;;
54241;SDS011;40156;51.080;17.082;2023-04-06T00:04:56;64.65;;;23.85;;
54241;SDS011;40156;51.080;17.082;2023-04-06T00:07:23;61.40;;;22.40;;
54241;SDS011;40156;51.080;17.082;2023-04-06T00:09:51;71.95;;;26.70;;
54241;SDS011;40156;51.080;17.082;2023-04-06T00:12:19;62.65;;;23.95;;
54241;SDS011;40156;51.080;17.082;2023-04-06T00:14:46;61.05;;;23.17;;
54241;SDS011;40156;51.080;17.082;2023-04-06T00:17:14;50.35;;;24.38;;
54241;SDS011;40156;51.080;17.082;2023-04-06T00:19:41;58.78;;;26.38;;
54241;SDS011;40156;51.080;17.082;2023-04-06T00:22:09;59.88;;;24.98;;
54241;SDS011;40156;51.080;17.082;2023-04-06T00:24:36;60.55;;;23.98;;
54241;SDS011;40156;51.080;17.082;2023-04-06T00:27:04;58.85;;;24.88;;
54241;SDS011;40156;51.080;17.082;2023-04-06T00:29:32;64.85;;;25.27;;
54241;SDS011;40156;51.080;17.082;2023-04-06T00:31:59;57.00;;;22.30;;
54241;SDS011;40156;51.080;17.082;2023-04-06T00:34:27;60.70;;;22.60;;
54241;SDS011;40156;51.080;17.082;2023-04-06T00:36:56;64.25;;;27.05;;
54241;SDS011;40156;51.080;17.082;2023-04-06T00:39:23;80.00;;;28.27;;
54241;SDS011;40156;51.080;17.082;2023-04-06T00:41:52;67.60;;;26.77;;
54241;SDS011;40156;51.080;17.082;2023-04-06T00:44:19;72.60;;;26.27;;
54241;SDS011;40156;51.080;17.082;2023-04-06T00:46:47;65.63;;;26.00;;
54241;SDS011;40156;51.080;17.082;2023-04-06T00:49:14;69.35;;;25.80;;
54241;SDS011;40156;51.080;17.082;2023-04-06T00:51:42;73.78;;;25.90;;
54241;SDS011;40156;51.080;17.082;2023-04-06T00:54:09;71.53;;;26.20;;
54241;SDS011;40156;51.080;17.082;2023-04-06T00:56:37;65.63;;;25.83;;
54241;SDS011;40156;51.080;17.082;2023-04-06T00:59:05;59.70;;;25.45;;
54241;SDS011;40156;51.080;17.082;2023-04-06T01:01:33;66.38;;;24.20;;
54241;SDS011;40156;51.080;17.082;2023-04-06T01:04:01;59.90;;;25.20;;
54241;SDS011;40156;51.080;17.082;2023-04-06T01:06:28;58.63;;;24.42;;
54241;SDS011;40156;51.080;17.082;2023-04-06T01:08:56;65.07;;;25.58;;
54241;SDS011;40156;51.080;17.082;2023-04-06T01:11:23;58.70;;;25.20;;
54241;SDS011;40156;51.080;17.082;2023-04-06T01:13:51;57.05;;;24.13;;
54241;SDS011;40156;51.080;17.082;2023-04-06T01:16:19;71.30;;;23.85;;
54241;SDS011;40156;51.080;17.082;2023-04-06T01:18:46;62.30;;;23.95;;
54241;SDS011;40156;51.080;17.082;2023-04-06T01:21:14;69.05;;;27.23;;
54241;SDS011;40156;51.080;17.082;2023-04-06T01:23:44;57.15;;;24.27;;
54241;SDS011;40156;51.080;17.082;2023-04-06T01:26:12;71.50;;;25.40;;
54241;SDS011;40156;51.080;17.082;2023-04-06T01:28:40;58.92;;;26.98;;
54241;SDS011;40156;51.080;17.082;2023-04-06T01:31:08;58.08;;;24.77;;
54241;SDS011;40156;51.080;17.082;2023-04-06T01:33:36;65.28;;;24.48;;
54241;SDS011;40156;51.080;17.082;2023-04-06T01:36:03;69.35;;;27.23;;
54241;SDS011;40156;51.080;17.082;2023-04-06T01:38:31;64.55;;;26.02;;
54241;SDS011;40156;51.080;17.082;2023-04-06T01:40:59;72.82;;;26.25;;
54241;SDS011;40156;51.080;17.082;2023-04-06T01:43:29;68.57;;;26.35;;
54241;SDS011;40156;51.080;17.082;2023-04-06T01:45:57;72.47;;;26.63;;
54241;SDS011;40156;51.080;17.082;2023-04-06T01:48:25;55.60;;;26.33;;
54241;SDS011;40156;51.080;17.082;2023-04-06T01:50:53;72.45;;;23.83;;
54241;SDS011;40156;51.080;17.082;2023-04-06T01:53:20;68.03;;;24.65;;
54241;SDS011;40156;51.080;17.082;2023-04-06T01:55:48;56.03;;;23.83;;
54241;SDS011;40156;51.080;17.082;2023-04-06T01:58:16;61.20;;;24.20;;
54241;SDS011;40156;51.080;17.082;2023-04-06T02:00:43;62.55;;;24.50;;
54241;SDS011;40156;51.080;17.082;2023-04-06T02:03:11;61.40;;;23.38;;
54241;SDS011;40156;51.080;17.082;2023-04-06T02:05:39;61.00;;;22.48;;
54241;SDS011;40156;51.080;17.082;2023-04-06T02:08:08;58.78;;;23.83;;
54241;SDS011;40156;51.080;17.082;2023-04-06T02:10:39;58.35;;;23.73;;
54241;SDS011;40156;51.080;17.082;2023-04-06T02:13:08;61.25;;;23.75;;
54241;SDS011;40156;51.080;17.082;2023-04-06T02:15:36;50.22;;;22.98;;
54241;SDS011;40156;51.080;17.082;2023-04-06T02:18:03;59.30;;;23.95;;
54241;SDS011;40156;51.080;17.082;2023-04-06T02:20:31;60.30;;;24.13;;
54241;SDS011;40156;51.080;17.082;2023-04-06T02:22:59;65.47;;;23.70;;
54241;SDS011;40156;51.080;17.082;2023-04-06T02:25:27;58.17;;;23.98;;
54241;SDS011;40156;51.080;17.082;2023-04-06T02:27:54;53.38;;;21.90;;
54241;SDS011;40156;51.080;17.082;2023-04-06T02:30:22;48.55;;;22.42;;
54241;SDS011;40156;51.080;17.082;2023-04-06T02:32:49;61.58;;;22.58;;
54241;SDS011;40156;51.080;17.082;2023-04-06T02:35:17;58.08;;;23.95;;
54241;SDS011;40156;51.080;17.082;2023-04-06T02:37:45;62.22;;;23.45;;
54241;SDS011;40156;51.080;17.082;2023-04-06T02:40:13;57.90;;;22.52;;
54241;SDS011;40156;51.080;17.082;2023-04-06T02:42:40;61.13;;;23.38;;
54241;SDS011;40156;51.080;17.082;2023-04-06T02:45:08;54.03;;;23.95;;
54241;SDS011;40156;51.080;17.082;2023-04-06T02:47:36;56.72;;;22.25;;
54241;SDS011;40156;51.080;17.082;2023-04-06T02:50:04;58.13;;;22.50;;
54241;SDS011;40156;51.080;17.082;2023-04-06T02:52:31;44.67;;;21.67;;
54241;SDS011;40156;51.080;17.082;2023-04-06T02:54:59;53.67;;;20.83;;
54241;SDS011;40156;51.080;17.082;2023-04-06T02:57:26;59.22;;;22.77;;
54241;SDS011;40156;51.080;17.082;2023-04-06T02:59:54;53.50;;;22.02;;
54241;SDS011;40156;51.080;17.082;2023-04-06T03:02:21;49.85;;;20.48;;
54241;SDS011;40156;51.080;17.082;2023-04-06T03:04:50;45.38;;;21.67;;
54241;SDS011;40156;51.080;17.082;2023-04-06T03:07:18;42.63;;;19.95;;
54241;SDS011;40156;51.080;17.082;2023-04-06T03:09:46;47.65;;;20.75;;
54241;SDS011;40156;51.080;17.082;2023-04-06T03:12:13;48.78;;;20.27;;
54241;SDS011;40156;51.080;17.082;2023-04-06T03:14:41;43.60;;;20.52;;
54241;SDS011;40156;51.080;17.082;2023-04-06T03:17:08;49.80;;;22.00;;
54241;SDS011;40156;51.080;17.082;2023-04-06T03:19:36;55.33;;;21.90;;
54241;SDS011;40156;51.080;17.082;2023-04-06T03:22:03;47.95;;;20.40;;
54241;SDS011;40156;51.080;17.082;2023-04-06T03:24:31;41.70;;;18.17;;
54241;SDS011;40156;51.080;17.082;2023-04-06T03:26:59;53.83;;;21.90;;
54241;SDS011;40156;51.080;17.082;2023-04-06T03:29:27;57.65;;;22.02;;
54241;SDS011;40156;51.080;17.082;2023-04-06T03:31:54;49.42;;;20.70;;
54241;SDS011;40156;51.080;17.082;2023-04-06T03:34:22;50.78;;;21.00;;
54241;SDS011;40156;51.080;17.082;2023-04-06T03:36:49;49.45;;;20.70;;
54241;SDS011;40156;51.080;17.082;2023-04-06T03:39:33;43.40;;;18.45;;
54241;SDS011;40156;51.080;17.082;2023-04-06T03:42:00;46.00;;;19.35;;
54241;SDS011;40156;51.080;17.082;2023-04-06T03:44:28;44.65;;;20.33;;
54241;SDS011;40156;51.080;17.082;2023-04-06T03:46:56;45.67;;;19.23;;
54241;SDS011;40156;51.080;17.082;2023-04-06T03:49:23;46.78;;;20.60;;
54241;SDS011;40156;51.080;17.082;2023-04-06T03:51:51;42.25;;;19.00;;
54241;SDS011;40156;51.080;17.082;2023-04-06T03:54:18;45.17;;;20.60;;
54241;SDS011;40156;51.080;17.082;2023-04-06T03:56:46;56.03;;;21.83;;
54241;SDS011;40156;51.080;17.082;2023-04-06T03:59:14;52.85;;;22.70;;
54241;SDS011;40156;51.080;17.082;2023-04-06T04:01:41;62.45;;;24.23;;
54241;SDS011;40156;51.080;17.082;2023-04-06T04:04:09;110.53;;;36.22;;
54241;SDS011;40156;51.080;17.082;2023-04-06T04:06:37;158.50;;;52.25;;
54241;SDS011;40156;51.080;17.082;2023-04-06T04:09:04;170.77;;;53.53;;
54241;SDS011;40156;51.080;17.082;2023-04-06T04:11:32;114.45;;;40.00;;
54241;SDS011;40156;51.080;17.082;2023-04-06T04:13:59;72.47;;;29.35;;
54241;SDS011;40156;51.080;17.082;2023-04-06T04:16:27;75.22;;;28.10;;
54241;SDS011;40156;51.080;17.082;2023-04-06T04:18:55;64.55;;;24.15;;
54241;SDS011;40156;51.080;17.082;2023-04-06T04:21:22;50.80;;;22.00;;
54241;SDS011;40156;51.080;17.082;2023-04-06T04:23:50;50.80;;;19.70;;
54241;SDS011;40156;51.080;17.082;2023-04-06T04:26:18;51.83;;;21.65;;
54241;SDS011;40156;51.080;17.082;2023-04-06T04:28:46;58.55;;;20.85;;
54241;SDS011;40156;51.080;17.082;2023-04-06T04:31:13;50.63;;;20.13;;
54241;SDS011;40156;51.080;17.082;2023-04-06T04:33:41;48.88;;;20.33;;
54241;SDS011;40156;51.080;17.082;2023-04-06T04:36:08;54.22;;;22.05;;
54241;SDS011;40156;51.080;17.082;2023-04-06T04:38:36;47.88;;;22.00;;
54241;SDS011;40156;51.080;17.082;2023-04-06T04:41:03;63.95;;;22.77;;
54241;SDS011;40156;51.080;17.082;2023-04-06T04:43:40;58.40;;;23.63;;
54241;SDS011;40156;51.080;17.082;2023-04-06T04:46:07;57.20;;;22.65;;
54241;SDS011;40156;51.080;17.082;2023-04-06T04:48:35;54.38;;;23.17;;
54241;SDS011;40156;51.080;17.082;2023-04-06T04:51:04;58.40;;;22.85;;
54241;SDS011;40156;51.080;17.082;2023-04-06T04:53:32;57.63;;;21.70;;
54241;SDS011;40156;51.080;17.082;2023-04-06T04:55:59;56.60;;;23.48;;
54241;SDS011;40156;51.080;17.082;2023-04-06T04:58:27;48.03;;;21.67;;
54241;SDS011;40156;51.080;17.082;2023-04-06T05:00:54;54.45;;;21.90;;
54241;SDS011;40156;51.080;17.082;2023-04-06T05:03:23;59.85;;;23.65;;
54241;SDS011;40156;51.080;17.082;2023-04-06T05:05:50;62.83;;;23.05;;
54241;SDS011;40156;51.080;17.082;2023-04-06T05:08:18;55.13;;;22.30;;
54241;SDS011;40156;51.080;17.082;2023-04-06T05:10:46;55.80;;;21.67;;
54241;SDS011;40156;51.080;17.082;2023-04-06T05:13:14;62.03;;;22.10;;
54241;SDS011;40156;51.080;17.082;2023-04-06T05:15:41;61.33;;;23.00;;
54241;SDS011;40156;51.080;17.082;2023-04-06T05:18:09;51.50;;;21.95;;
54241;SDS011;40156;51.080;17.082;2023-04-06T05:20:37;50.83;;;22.10;;
54241;SDS011;40156;51.080;17.082;2023-04-06T05:23:05;57.65;;;22.38;;
54241;SDS011;40156;51.080;17.082;2023-04-06T05:25:33;44.80;;;18.83;;
54241;SDS011;40156;51.080;17.082;2023-04-06T05:28:00;54.92;;;20.75;;
54241;SDS011;40156;51.080;17.082;2023-04-06T05:30:28;43.10;;;20.70;;
54241;SDS011;40156;51.080;17.082;2023-04-06T05:32:55;51.83;;;21.63;;
54241;SDS011;40156;51.080;17.082;2023-04-06T05:35:23;50.55;;;22.73;;
54241;SDS011;40156;51.080;17.082;2023-04-06T05:37:52;46.85;;;22.70;;
54241;SDS011;40156;51.080;17.082;2023-04-06T05:40:19;57.58;;;24.90;;
54241;SDS011;40156;51.080;17.082;2023-04-06T05:42:47;55.83;;;23.65;;
54241;SDS011;40156;51.080;17.082;2023-04-06T05:45:14;51.55;;;24.42;;
54241;SDS011;40156;51.080;17.082;2023-04-06T05:47:43;46.25;;;22.40;;
54241;SDS011;40156;51.080;17.082;2023-04-06T05:50:11;50.38;;;23.00;;
54241;SDS011;40156;51.080;17.082;2023-04-06T05:52:38;54.47;;;25.27;;
54241;SDS011;40156;51.080;17.082;2023-04-06T05:55:06;47.80;;;23.40;;
54241;SDS011;40156;51.080;17.082;2023-04-06T05:57:37;52.75;;;24.02;;
54241;SDS011;40156;51.080;17.082;2023-04-06T06:00:05;49.47;;;23.85;;
54241;SDS011;40156;51.080;17.082;2023-04-06T06:02:33;42.38;;;21.83;;
54241;SDS011;40156;51.080;17.082;2023-04-06T06:05:01;44.55;;;21.83;;
54241;SDS011;40156;51.080;17.082;2023-04-06T06:07:28;52.40;;;22.48;;
54241;SDS011;40156;51.080;17.082;2023-04-06T06:09:57;49.03;;;21.65;;
54241;SDS011;40156;51.080;17.082;2023-04-06T06:12:24;46.80;;;21.85;;
54241;SDS011;40156;51.080;17.082;2023-04-06T06:14:55;44.38;;;22.20;;
54241;SDS011;40156;51.080;17.082;2023-04-06T06:17:23;42.40;;;21.85;;
54241;SDS011;40156;51.080;17.082;2023-04-06T06:19:50;42.40;;;21.40;;
54241;SDS011;40156;51.080;17.082;2023-04-06T06:22:18;39.70;;;20.63;;
54241;SDS011;40156;51.080;17.082;2023-04-06T06:24:46;39.03;;;19.75;;
54241;SDS011;40156;51.080;17.082;2023-04-06T06:27:13;42.53;;;20.33;;
54241;SDS011;40156;51.080;17.082;2023-04-06T06:29:41;38.42;;;20.23;;
54241;SDS011;40156;51.080;17.082;2023-04-06T06:32:08;39.15;;;20.80;;
54241;SDS011;40156;51.080;17.082;2023-04-06T06:34:36;32.42;;;19.40;;
54241;SDS011;40156;51.080;17.082;2023-04-06T06:37:04;38.65;;;20.33;;
54241;SDS011;40156;51.080;17.082;2023-04-06T06:39:31;37.72;;;19.33;;
54241;SDS011;40156;51.080;17.082;2023-04-06T06:41:59;39.58;;;20.90;;
54241;SDS011;40156;51.080;17.082;2023-04-06T06:44:27;37.83;;;20.00;;
54241;SDS011;40156;51.080;17.082;2023-04-06T06:46:54;36.85;;;19.92;;
54241;SDS011;40156;51.080;17.082;2023-04-06T06:49:22;33.53;;;19.08;;
54241;SDS011;40156;51.080;17.082;2023-04-06T06:51:50;38.05;;;19.48;;
54241;SDS011;40156;51.080;17.082;2023-04-06T06:54:17;35.65;;;18.90;;
54241;SDS011;40156;51.080;17.082;2023-04-06T06:56:45;33.28;;;18.30;;
54241;SDS011;40156;51.080;17.082;2023-04-06T06:59:12;30.85;;;18.98;;
54241;SDS011;40156;51.080;17.082;2023-04-06T07:01:40;36.45;;;19.23;;
54241;SDS011;40156;51.080;17.082;2023-04-06T07:04:09;33.40;;;20.15;;
54241;SDS011;40156;51.080;17.082;2023-04-06T07:06:37;36.28;;;17.95;;
54241;SDS011;40156;51.080;17.082;2023-04-06T07:09:05;28.70;;;19.33;;
54241;SDS011;40156;51.080;17.082;2023-04-06T07:11:38;35.50;;;19.45;;
54241;SDS011;40156;51.080;17.082;2023-04-06T07:14:19;35.97;;;20.80;;
54241;SDS011;40156;51.080;17.082;2023-04-06T07:17:54;38.72;;;20.02;;
54241;SDS011;40156;51.080;17.082;2023-04-06T07:20:22;31.42;;;18.63;;
54241;SDS011;40156;51.080;17.082;2023-04-06T07:22:50;33.80;;;19.73;;
54241;SDS011;40156;51.080;17.082;2023-04-06T07:25:17;36.20;;;20.83;;
54241;SDS011;40156;51.080;17.082;2023-04-06T07:27:45;36.92;;;19.95;;
54241;SDS011;40156;51.080;17.082;2023-04-06T07:30:12;39.63;;;20.00;;
54241;SDS011;40156;51.080;17.082;2023-04-06T07:32:40;38.10;;;21.05;;
54241;SDS011;40156;51.080;17.082;2023-04-06T07:35:10;39.42;;;20.67;;
54241;SDS011;40156;51.080;17.082;2023-04-06T07:37:37;28.42;;;18.27;;
54241;SDS011;40156;51.080;17.082;2023-04-06T07:40:05;28.92;;;18.50;;
54241;SDS011;40156;51.080;17.082;2023-04-06T07:42:38;26.70;;;16.77;;
54241;SDS011;40156;51.080;17.082;2023-04-06T07:45:06;25.95;;;15.40;;
54241;SDS011;40156;51.080;17.082;2023-04-06T07:47:34;22.80;;;14.02;;
54241;SDS011;40156;51.080;17.082;2023-04-06T07:50:02;24.42;;;14.63;;
54241;SDS011;40156;51.080;17.082;2023-04-06T07:52:29;21.13;;;12.90;;
54241;SDS011;40156;51.080;17.082;2023-04-06T07:54:57;22.30;;;10.75;;
54241;SDS011;40156;51.080;17.082;2023-04-06T07:57:25;17.08;;;10.40;;
54241;SDS011;40156;51.080;17.082;2023-04-06T07:59:53;22.17;;;11.98;;
54241;SDS011;40156;51.080;17.082;2023-04-06T08:02:20;23.75;;;11.57;;
54241;SDS011;40156;51.080;17.082;2023-04-06T08:04:52;19.13;;;11.57;;
54241;SDS011;40156;51.080;17.082;2023-04-06T08:07:43;21.98;;;13.65;;
54241;SDS011;40156;51.080;17.082;2023-04-06T08:14:18;22.58;;;13.52;;
54241;SDS011;40156;51.080;17.082;2023-04-06T08:16:46;21.50;;;12.43;;
54241;SDS011;40156;51.080;17.082;2023-04-06T08:19:17;17.70;;;10.53;;
54241;SDS011;40156;51.080;17.082;2023-04-06T08:21:45;27.73;;;13.95;;
54241;SDS011;40156;51.080;17.082;2023-04-06T08:24:13;24.08;;;14.43;;
54241;SDS011;40156;51.080;17.082;2023-04-06T08:26:41;17.08;;;9.40;;
54241;SDS011;40156;51.080;17.082;2023-04-06T08:29:09;17.38;;;10.32;;
54241;SDS011;40156;51.080;17.082;2023-04-06T08:31:37;17.55;;;10.65;;
54241;SDS011;40156;51.080;17.082;2023-04-06T08:34:05;14.00;;;8.93;;
54241;SDS011;40156;51.080;17.082;2023-04-06T08:36:33;15.88;;;8.70;;
54241;SDS011;40156;51.080;17.082;2023-04-06T08:39:01;13.10;;;8.02;;
54241;SDS011;40156;51.080;17.082;2023-04-06T08:41:28;16.63;;;8.70;;
54241;SDS011;40156;51.080;17.082;2023-04-06T08:43:58;12.30;;;8.50;;
54241;SDS011;40156;51.080;17.082;2023-04-06T08:49:46;17.65;;;8.35;;
54241;SDS011;40156;51.080;17.082;2023-04-06T08:52:15;12.95;;;8.15;;
54241;SDS011;40156;51.080;17.082;2023-04-06T08:54:45;13.48;;;7.80;;
54241;SDS011;40156;51.080;17.082;2023-04-06T08:57:13;13.45;;;8.10;;
54241;SDS011;40156;51.080;17.082;2023-04-06T08:59:40;14.95;;;8.30;;
54241;SDS011;40156;51.080;17.082;2023-04-06T09:05:13;12.02;;;7.28;;
54241;SDS011;40156;51.080;17.082;2023-04-06T09:07:40;13.50;;;6.93;;
54241;SDS011;40156;51.080;17.082;2023-04-06T09:10:08;10.30;;;6.78;;
54241;SDS011;40156;51.080;17.082;2023-04-06T09:12:36;14.68;;;7.20;;
54241;SDS011;40156;51.080;17.082;2023-04-06T09:15:17;10.23;;;7.50;;
54241;SDS011;40156;51.080;17.082;2023-04-06T09:18:07;13.77;;;7.32;;
54241;SDS011;40156;51.080;17.082;2023-04-06T09:20:35;10.55;;;7.45;;
54241;SDS011;40156;51.080;17.082;2023-04-06T09:23:03;14.88;;;7.90;;
54241;SDS011;40156;51.080;17.082;2023-04-06T09:25:31;13.48;;;7.53;;
54241;SDS011;40156;51.080;17.082;2023-04-06T09:28:00;11.50;;;6.90;;
54241;SDS011;40156;51.080;17.082;2023-04-06T09:30:28;13.25;;;8.10;;
54241;SDS011;40156;51.080;17.082;2023-04-06T09:32:56;10.95;;;6.78;;
54241;SDS011;40156;51.080;17.082;2023-04-06T09:35:24;12.18;;;7.25;;
54241;SDS011;40156;51.080;17.082;2023-04-06T09:37:52;11.02;;;7.05;;
54241;SDS011;40156;51.080;17.082;2023-04-06T09:40:20;12.30;;;7.40;;
54241;SDS011;40156;51.080;17.082;2023-04-06T09:42:48;11.35;;;7.18;;
54241;SDS011;40156;51.080;17.082;2023-04-06T09:45:16;11.88;;;7.28;;
54241;SDS011;40156;51.080;17.082;2023-04-06T09:47:46;10.75;;;6.15;;
54241;SDS011;40156;51.080;17.082;2023-04-06T09:50:14;10.43;;;5.93;;
54241;SDS011;40156;51.080;17.082;2023-04-06T09:52:48;10.57;;;6.00;;
54241;SDS011;40156;51.080;17.082;2023-04-06T09:55:35;9.80;;;5.28;;
54241;SDS011;40156;51.080;17.082;2023-04-06T09:58:09;8.00;;;5.28;;
54241;SDS011;40156;51.080;17.082;2023-04-06T10:00:42;12.45;;;6.32;;
54241;SDS011;40156;51.080;17.082;2023-04-06T10:05:57;8.20;;;4.93;;
54241;SDS011;40156;51.080;17.082;2023-04-06T10:08:27;10.07;;;6.40;;
54241;SDS011;40156;51.080;17.082;2023-04-06T10:10:59;14.00;;;5.30;;
54241;SDS011;40156;51.080;17.082;2023-04-06T10:13:26;11.77;;;6.93;;
54241;SDS011;40156;51.080;17.082;2023-04-06T10:15:54;9.63;;;5.05;;
54241;SDS011;40156;51.080;17.082;2023-04-06T10:18:22;15.15;;;5.75;;
54241;SDS011;40156;51.080;17.082;2023-04-06T10:23:26;10.98;;;5.88;;
54241;SDS011;40156;51.080;17.082;2023-04-06T10:26:00;8.90;;;5.30;;
54241;SDS011;40156;51.080;17.082;2023-04-06T10:28:31;9.82;;;6.07;;
54241;SDS011;40156;51.080;17.082;2023-04-06T10:31:00;9.32;;;5.25;;
54241;SDS011;40156;51.080;17.082;2023-04-06T10:33:28;8.05;;;5.70;;
54241;SDS011;40156;51.080;17.082;2023-04-06T10:35:56;9.65;;;6.32;;
54241;SDS011;40156;51.080;17.082;2023-04-06T10:38:33;9.80;;;5.60;;
54241;SDS011;40156;51.080;17.082;2023-04-06T10:41:05;11.50;;;6.78;;
54241;SDS011;40156;51.080;17.082;2023-04-06T10:43:33;8.43;;;5.70;;
54241;SDS011;40156;51.080;17.082;2023-04-06T10:46:01;8.35;;;4.78;;
54241;SDS011;40156;51.080;17.082;2023-04-06T10:48:39;9.18;;;5.20;;
54241;SDS011;40156;51.080;17.082;2023-04-06T10:51:10;6.97;;;4.65;;
54241;SDS011;40156;51.080;17.082;2023-04-06T10:53:38;10.65;;;5.28;;
54241;SDS011;40156;51.080;17.082;2023-04-06T10:56:11;6.20;;;4.40;;
54241;SDS011;40156;51.080;17.082;2023-04-06T10:58:49;7.07;;;4.10;;
54241;SDS011;40156;51.080;17.082;2023-04-06T11:01:17;6.63;;;4.32;;
54241;SDS011;40156;51.080;17.082;2023-04-06T11:03:46;5.20;;;3.90;;
54241;SDS011;40156;51.080;17.082;2023-04-06T11:06:23;5.45;;;4.13;;
54241;SDS011;40156;51.080;17.082;2023-04-06T11:08:51;7.43;;;4.00;;
54241;SDS011;40156;51.080;17.082;2023-04-06T11:11:20;7.20;;;4.15;;
54241;SDS011;40156;51.080;17.082;2023-04-06T11:13:51;6.97;;;4.22;;
54241;SDS011;40156;51.080;17.082;2023-04-06T11:16:20;8.00;;;4.38;;
54241;SDS011;40156;51.080;17.082;2023-04-06T11:18:52;9.48;;;4.78;;
54241;SDS011;40156;51.080;17.082;2023-04-06T11:21:30;7.32;;;4.47;;
54241;SDS011;40156;51.080;17.082;2023-04-06T11:24:08;8.18;;;5.05;;
54241;SDS011;40156;51.080;17.082;2023-04-06T11:26:37;7.40;;;5.22;;
54241;SDS011;40156;51.080;17.082;2023-04-06T11:29:05;7.90;;;4.68;;
54241;SDS011;40156;51.080;17.082;2023-04-06T11:31:41;7.60;;;4.75;;
54241;SDS011;40156;51.080;17.082;2023-04-06T11:34:13;9.73;;;5.00;;
54241;SDS011;40156;51.080;17.082;2023-04-06T11:36:41;8.35;;;4.78;;
54241;SDS011;40156;51.080;17.082;2023-04-06T11:39:11;7.88;;;4.85;;
54241;SDS011;40156;51.080;17.082;2023-04-06T11:41:39;8.15;;;4.80;;
54241;SDS011;40156;51.080;17.082;2023-04-06T11:44:07;8.15;;;4.97;;
54241;SDS011;40156;51.080;17.082;2023-04-06T11:46:34;8.25;;;5.20;;
54241;SDS011;40156;51.080;17.082;2023-04-06T11:49:02;8.63;;;5.00;;
54241;SDS011;40156;51.080;17.082;2023-04-06T11:51:35;9.77;;;5.00;;
54241;SDS011;40156;51.080;17.082;2023-04-06T11:54:03;9.02;;;5.22;;
54241;SDS011;40156;51.080;17.082;2023-04-06T11:56:30;8.98;;;4.97;;
54241;SDS011;40156;51.080;17.082;2023-04-06T11:58:58;11.77;;;5.07;;
54241;SDS011;40156;51.080;17.082;2023-04-06T12:01:26;8.85;;;5.25;;
54241;SDS011;40156;51.080;17.082;2023-04-06T12:03:53;11.10;;;5.70;;
54241;SDS011;40156;51.080;17.082;2023-04-06T12:06:21;12.20;;;6.43;;
54241;SDS011;40156;51.080;17.082;2023-04-06T12:08:50;12.80;;;6.13;;
54241;SDS011;40156;51.080;17.082;2023-04-06T12:11:19;8.75;;;6.15;;
54241;SDS011;40156;51.080;17.082;2023-04-06T12:13:47;11.57;;;6.03;;
54241;SDS011;40156;51.080;17.082;2023-04-06T12:16:14;13.20;;;6.13;;
54241;SDS011;40156;51.080;17.082;2023-04-06T12:18:42;10.45;;;6.22;;
54241;SDS011;40156;51.080;17.082;2023-04-06T12:21:10;8.75;;;5.97;;
54241;SDS011;40156;51.080;17.082;2023-04-06T12:23:37;11.93;;;6.45;;
54241;SDS011;40156;51.080;17.082;2023-04-06T12:26:05;9.82;;;5.88;;
54241;SDS011;40156;51.080;17.082;2023-04-06T12:28:39;10.82;;;6.68;;
54241;SDS011;40156;51.080;17.082;2023-04-06T12:31:07;10.63;;;6.18;;
54241;SDS011;40156;51.080;17.082;2023-04-06T12:33:35;11.88;;;6.65;;
54241;SDS011;40156;51.080;17.082;2023-04-06T12:36:02;10.85;;;6.85;;
54241;SDS011;40156;51.080;17.082;2023-04-06T12:38:30;12.32;;;6.50;;
54241;SDS011;40156;51.080;17.082;2023-04-06T12:40:57;11.23;;;6.57;;
54241;SDS011;40156;51.080;17.082;2023-04-06T12:43:25;11.98;;;7.05;;
54241;SDS011;40156;51.080;17.082;2023-04-06T12:45:53;10.63;;;6.47;;
54241;SDS011;40156;51.080;17.082;2023-04-06T12:48:20;10.20;;;6.25;;
54241;SDS011;40156;51.080;17.082;2023-04-06T12:50:57;11.80;;;7.10;;
54241;SDS011;40156;51.080;17.082;2023-04-06T12:53:25;9.60;;;6.55;;
54241;SDS011;40156;51.080;17.082;2023-04-06T12:55:55;13.20;;;6.40;;
54241;SDS011;40156;51.080;17.082;2023-04-06T12:58:23;10.32;;;6.50;;
54241;SDS011;40156;51.080;17.082;2023-04-06T13:00:51;10.80;;;6.80;;
54241;SDS011;40156;51.080;17.082;2023-04-06T13:03:20;9.98;;;6.38;;
54241;SDS011;40156;51.080;17.082;2023-04-06T13:05:51;8.15;;;4.97;;
54241;SDS011;40156;51.080;17.082;2023-04-06T13:08:18;8.75;;;5.35;;
54241;SDS011;40156;51.080;17.082;2023-04-06T13:10:47;9.50;;;5.72;;
54241;SDS011;40156;51.080;17.082;2023-04-06T13:13:15;11.38;;;6.15;;
54241;SDS011;40156;51.080;17.082;2023-04-06T13:15:43;9.02;;;5.03;;
54241;SDS011;40156;51.080;17.082;2023-04-06T13:18:11;7.05;;;4.70;;
54241;SDS011;40156;51.080;17.082;2023-04-06T13:20:38;9.40;;;4.93;;
54241;SDS011;40156;51.080;17.082;2023-04-06T13:23:06;6.25;;;4.50;;
54241;SDS011;40156;51.080;17.082;2023-04-06T13:25:34;10.02;;;4.68;;
54241;SDS011;40156;51.080;17.082;2023-04-06T13:28:01;8.27;;;4.32;;
54241;SDS011;40156;51.080;17.082;2023-04-06T13:30:29;7.50;;;4.20;;
54241;SDS011;40156;51.080;17.082;2023-04-06T13:32:56;7.78;;;4.50;;
54241;SDS011;40156;51.080;17.082;2023-04-06T13:35:24;6.97;;;4.32;;
54241;SDS011;40156;51.080;17.082;2023-04-06T13:37:54;6.15;;;3.97;;
54241;SDS011;40156;51.080;17.082;2023-04-06T13:40:22;5.60;;;4.13;;
54241;SDS011;40156;51.080;17.082;2023-04-06T13:42:49;7.47;;;4.80;;
54241;SDS011;40156;51.080;17.082;2023-04-06T13:45:17;5.70;;;4.10;;
54241;SDS011;40156;51.080;17.082;2023-04-06T13:47:44;8.13;;;4.55;;
54241;SDS011;40156;51.080;17.082;2023-04-06T13:50:12;8.57;;;4.97;;
54241;SDS011;40156;51.080;17.082;2023-04-06T13:52:39;8.85;;;5.50;;
54241;SDS011;40156;51.080;17.082;2023-04-06T13:55:07;7.18;;;5.32;;
54241;SDS011;40156;51.080;17.082;2023-04-06T13:57:35;7.38;;;4.90;;
54241;SDS011;40156;51.080;17.082;2023-04-06T14:00:03;9.05;;;5.35;;
54241;SDS011;40156;51.080;17.082;2023-04-06T14:02:34;12.37;;;6.00;;
54241;SDS011;40156;51.080;17.082;2023-04-06T14:05:02;10.77;;;5.40;;
54241;SDS011;40156;51.080;17.082;2023-04-06T14:07:29;7.50;;;5.28;;
54241;SDS011;40156;51.080;17.082;2023-04-06T14:09:57;13.40;;;5.97;;
54241;SDS011;40156;51.080;17.082;2023-04-06T14:12:24;7.60;;;5.05;;
54241;SDS011;40156;51.080;17.082;2023-04-06T14:14:52;10.02;;;5.88;;
54241;SDS011;40156;51.080;17.082;2023-04-06T14:17:20;8.07;;;5.57;;
54241;SDS011;40156;51.080;17.082;2023-04-06T14:19:47;9.00;;;6.00;;
54241;SDS011;40156;51.080;17.082;2023-04-06T14:22:15;9.07;;;6.00;;
54241;SDS011;40156;51.080;17.082;2023-04-06T14:24:45;11.00;;;6.20;;
54241;SDS011;40156;51.080;17.082;2023-04-06T14:27:14;12.95;;;6.75;;
54241;SDS011;40156;51.080;17.082;2023-04-06T14:29:42;10.02;;;6.55;;
54241;SDS011;40156;51.080;17.082;2023-04-06T14:32:09;13.00;;;6.15;;
54241;SDS011;40156;51.080;17.082;2023-04-06T14:34:37;11.55;;;6.10;;
54241;SDS011;40156;51.080;17.082;2023-04-06T14:37:05;12.10;;;6.53;;
54241;SDS011;40156;51.080;17.082;2023-04-06T14:39:32;10.25;;;6.05;;
54241;SDS011;40156;51.080;17.082;2023-04-06T14:42:00;9.35;;;5.45;;